MAPA DE AEROPUERTO

INFORMACIÓN METAR y TAF


Deprecated: The each() function is deprecated. This message will be suppressed on further calls in /home/customer/www/clickair-va.com/public_html/VAM/vam/helpers/get_metar.php on line 20
METAR FOR LEMD
ADDS - METARS form results

(0031 UTC 02 December 2022)
Data provider http://aviationweather.gov/metar/data/
 
METAR text: LEMD 020000Z 33003KT CAVOK 03/M01 Q1016 NOSIG
Conditions at: LEMD (MADRID/BARAJAS , ES) observed 0000 UTC 02 December 2022
Temperature: 3.0°C (37°F)
Dewpoint: -1.0°C (30°F) [RH = 75%]
Pressure (altimeter): 30.00 inches Hg (1016.0 mb)
Winds: from the NNW (330 degrees) at 3 MPH (3 knots; 1.5 m/s)
Visibility: 6 or more miles (10+ km)
Ceiling: ceiling and visibility are OK
Clouds: unknown
Weather: no significant weather observed at this time

Forecast for: LEMD (MADRID/BARAJAS , ES)
Text: TAF LEMD 012300Z 0200/0306 02006KT 9999 SCT035 TX11/0214Z TN01/0206Z
Forecast period: 0000 UTC 02 December 2022 to 0600 UTC 03 December 2022
Forecast type: FROM: standard forecast or significant change
Winds: from the NNE (20 degrees) at 7 MPH (6 knots; 3.1 m/s)
Visibility: 6 or more miles (10+ km)
Ceiling: at least 12,000 feet AGL
Clouds: scattered clouds at 3500 feet AGL
Weather: no significant weather forecast for this period